Time;durP1;ratioP1;P1;durP2;ratioP2;P2;SDS_P1;SDS_P2;PMS_P1;PMS_P2;Temp;Humidity;BMP_temperature;BMP_pressure;BME280_temperature;BME280_humidity;BME280_pressure;Samples;Min_cycle;Max_cycle;Signal;HPM_P1;HPM_P2
2022/12/09 00:00:11;;;;;;;54.93;23.80;;;;;;;-0.78;100.00;99186.28;4208030;28;20617;-67
2022/12/09 00:02:38;;;;;;;54.77;24.53;;;;;;;-0.79;100.00;99195.91;4203269;28;20316;-68
2022/12/09 00:05:05;;;;;;;58.90;23.97;;;;;;;-0.76;100.00;99194.84;4211259;28;20320;-67
2022/12/09 00:07:36;;;;;;;54.33;23.77;;;;;;;-0.76;100.00;99187.84;4202113;28;21901;-66
2022/12/09 00:10:04;;;;;;;56.70;24.23;;;;;;;-0.77;100.00;99180.97;4196888;28;20744;-69
2022/12/09 00:12:32;;;;;;;54.20;23.63;;;;;;;-0.88;100.00;99181.69;4209221;28;20231;-67
2022/12/09 00:15:00;;;;;;;52.03;23.93;;;;;;;-0.89;100.00;99187.00;4211370;28;22344;-68
2022/12/09 00:17:29;;;;;;;54.20;23.93;;;;;;;-0.81;100.00;99181.28;4215002;28;20237;-67
2022/12/09 00:19:55;;;;;;;56.17;24.20;;;;;;;-0.78;100.00;99183.69;4205598;28;20244;-68
2022/12/09 00:22:22;;;;;;;48.63;23.27;;;;;;;-0.77;100.00;99174.88;4209921;28;20436;-66
2022/12/09 00:24:48;;;;;;;54.40;24.10;;;;;;;-0.79;100.00;99179.41;4205483;28;20469;-68
2022/12/09 00:27:15;;;;;;;53.07;23.73;;;;;;;-0.88;100.00;99179.06;4209549;28;20226;-69
2022/12/09 00:29:41;;;;;;;54.60;23.20;;;;;;;-0.91;100.00;99183.69;4211326;28;20422;-66
2022/12/09 00:32:08;;;;;;;54.47;22.50;;;;;;;-0.90;100.00;99180.13;4220502;28;22422;-66
2022/12/09 00:34:35;;;;;;;51.13;23.07;;;;;;;-0.82;100.00;99182.19;4217451;28;20243;-67
2022/12/09 00:37:01;;;;;;;57.60;24.03;;;;;;;-0.94;100.00;99189.91;4217863;28;20340;-66
2022/12/09 00:39:28;;;;;;;52.00;23.93;;;;;;;-0.87;100.00;99191.22;4220655;28;26188;-67
2022/12/09 00:41:54;;;;;;;51.30;22.97;;;;;;;-0.90;100.00;99191.38;4211628;28;20230;-66
2022/12/09 00:44:21;;;;;;;57.47;24.20;;;;;;;-0.94;100.00;99187.31;4206509;28;23250;-67
2022/12/09 00:46:47;;;;;;;49.30;22.63;;;;;;;-0.87;100.00;99195.56;4206600;28;20332;-69
2022/12/09 00:49:14;;;;;;;49.70;22.53;;;;;;;-0.87;100.00;99188.59;4217912;28;23168;-66
2022/12/09 00:51:41;;;;;;;50.53;22.77;;;;;;;-0.86;100.00;99190.25;4207595;28;20356;-69
2022/12/09 00:54:07;;;;;;;56.07;24.37;;;;;;;-0.91;100.00;99189.72;4207065;28;20340;-72
2022/12/09 00:56:34;;;;;;;53.83;23.37;;;;;;;-0.82;100.00;99193.50;4232640;28;20243;-66
2022/12/09 00:59:01;;;;;;;56.07;24.03;;;;;;;-0.89;100.00;99184.38;4209594;28;21257;-67
2022/12/09 01:01:28;;;;;;;56.13;23.93;;;;;;;-0.83;100.00;99180.53;4282243;28;25770;-68
2022/12/09 01:03:55;;;;;;;61.63;24.03;;;;;;;-0.83;100.00;99185.78;4281170;28;20337;-67
2022/12/09 01:06:23;;;;;;;54.17;23.73;;;;;;;-0.94;100.00;99183.88;4258407;28;20232;-69
2022/12/09 01:08:50;;;;;;;59.90;24.33;;;;;;;-0.83;100.00;99185.78;4214897;28;20303;-67
2022/12/09 01:11:20;;;;;;;53.60;23.80;;;;;;;-0.75;100.00;99193.91;4207452;28;20246;-70
2022/12/09 01:13:47;;;;;;;51.70;23.43;;;;;;;-0.73;100.00;99182.41;4212501;28;20395;-68
2022/12/09 01:16:24;;;;;;;50.37;22.67;;;;;;;-0.81;100.00;99183.91;4213553;28;22250;-66
2022/12/09 01:18:53;;;;;;;55.10;23.47;;;;;;;-0.77;100.00;99185.34;4231040;28;20236;-68
2022/12/09 01:21:20;;;;;;;52.80;23.03;;;;;;;-0.81;100.00;99183.91;4208129;28;22065;-67
2022/12/09 01:23:46;;;;;;;53.47;23.83;;;;;;;-0.84;100.00;99179.72;4208016;28;22168;-64
2022/12/09 01:26:13;;;;;;;53.13;24.33;;;;;;;-0.92;100.00;99175.00;4204248;28;20232;-67
2022/12/09 01:28:40;;;;;;;54.43;22.70;;;;;;;-0.93;100.00;99181.16;4205032;28;20247;-66
2022/12/09 01:31:09;;;;;;;58.37;24.10;;;;;;;-0.81;100.00;99173.44;4225164;28;20321;-69
2022/12/09 01:33:35;;;;;;;53.07;22.40;;;;;;;-0.88;100.00;99176.47;4212780;28;21371;-67
2022/12/09 01:36:07;;;;;;;61.87;24.37;;;;;;;-0.81;100.00;99173.44;4205318;28;20705;-68
2022/12/09 01:38:34;;;;;;;53.53;24.40;;;;;;;-1.01;100.00;99166.94;4208469;28;20235;-64
2022/12/09 01:41:01;;;;;;;55.03;23.80;;;;;;;-0.97;100.00;99174.47;4211327;28;20231;-67
2022/12/09 01:43:28;;;;;;;52.30;23.47;;;;;;;-0.90;100.00;99165.28;4199611;28;20313;-66
2022/12/09 01:45:54;;;;;;;56.70;24.23;;;;;;;-1.02;100.00;99166.09;4206990;28;20227;-64
2022/12/09 01:48:27;;;;;;;59.63;25.10;;;;;;;-1.09;100.00;99162.25;4234551;28;20223;-68
2022/12/09 01:51:00;;;;;;;57.20;24.23;;;;;;;-1.00;100.00;99169.47;4210385;28;25101;-66
2022/12/09 01:53:29;;;;;;;57.20;23.83;;;;;;;-0.91;100.00;99171.44;4184338;28;20365;-64
2022/12/09 01:56:00;;;;;;;54.60;24.07;;;;;;;-0.98;100.00;99172.81;4212149;28;20294;-68
2022/12/09 01:58:27;;;;;;;56.30;22.67;;;;;;;-1.05;100.00;99171.56;4204702;28;20751;-66
2022/12/09 02:00:54;;;;;;;53.60;24.40;;;;;;;-1.01;100.00;99172.16;4196495;28;20308;-66
2022/12/09 02:03:20;;;;;;;54.23;23.70;;;;;;;-0.92;100.00;99172.38;4209691;28;20231;-66
2022/12/09 02:05:47;;;;;;;59.23;24.03;;;;;;;-0.87;100.00;99170.31;4223406;28;20227;-65
2022/12/09 02:08:16;;;;;;;51.80;23.13;;;;;;;-0.96;100.00;99168.31;4200116;28;20259;-67
2022/12/09 02:10:51;;;;;;;60.90;25.67;;;;;;;-1.00;100.00;99164.25;4205843;28;21906;-66
2022/12/09 02:13:40;;;;;;;55.23;23.87;;;;;;;-1.00;100.00;99163.41;4208508;28;23108;-65
2022/12/09 02:16:09;;;;;;;57.20;23.90;;;;;;;-1.04;100.00;99162.75;4202478;28;20362;-64
2022/12/09 02:18:45;;;;;;;55.20;23.07;;;;;;;-0.95;100.00;99169.16;4216778;28;21707;-66
2022/12/09 02:21:44;;;;;;;52.57;23.57;;;;;;;-0.93;100.00;99155.06;4222354;28;20257;-67
2022/12/09 02:24:26;;;;;;;50.83;22.77;;;;;;;-0.98;100.00;99157.16;4194428;28;22003;-70
2022/12/09 02:27:16;;;;;;;56.00;23.67;;;;;;;-0.90;100.00;99154.84;4197405;28;20231;-65
2022/12/09 02:30:00;;;;;;;52.40;23.80;;;;;;;-1.02;100.00;99155.66;4213482;28;20235;-69
2022/12/09 02:32:49;;;;;;;49.57;22.17;;;;;;;-0.95;100.00;99164.75;4189748;28;20245;-65
2022/12/09 02:35:38;;;;;;;53.13;22.50;;;;;;;-0.97;100.00;99156.19;4206586;28;20402;-67
2022/12/09 02:38:16;;;;;;;53.60;23.30;;;;;;;-0.84;100.00;99158.81;4233281;28;21600;-67
2022/12/09 02:40:50;;;;;;;56.23;23.63;;;;;;;-0.95;100.00;99163.94;4194647;28;26301;-66
2022/12/09 02:43:21;;;;;;;52.73;24.07;;;;;;;-1.03;100.00;99163.59;4220743;28;20660;-66
2022/12/09 02:45:48;;;;;;;57.53;24.03;;;;;;;-1.12;100.00;99162.47;4208936;28;20319;-66
2022/12/09 02:48:17;;;;;;;55.30;23.87;;;;;;;-1.10;100.00;99158.81;4203421;28;20246;-66
2022/12/09 02:50:45;;;;;;;52.53;24.10;;;;;;;-1.03;100.00;99163.59;4204404;28;20432;-67
2022/12/09 02:53:12;;;;;;;52.17;23.83;;;;;;;-0.98;100.00;99167.59;4211571;28;22196;-64
2022/12/09 02:55:41;;;;;;;55.10;24.37;;;;;;;-1.01;100.00;99170.38;4204066;28;21410;-66
2022/12/09 02:58:08;;;;;;;53.20;23.23;;;;;;;-1.01;100.00;99175.59;4190149;28;20237;-64
2022/12/09 03:00:36;;;;;;;57.87;24.90;;;;;;;-0.97;100.00;99173.63;4198415;28;20237;-65
2022/12/09 03:03:04;;;;;;;56.53;23.93;;;;;;;-0.96;100.00;99170.94;4203604;28;22735;-66
2022/12/09 03:05:52;;;;;;;52.60;23.00;;;;;;;-1.00;100.00;99164.25;4190445;28;20239;-62
2022/12/09 03:08:35;;;;;;;57.70;25.00;;;;;;;-0.93;100.00;99165.50;4222283;28;20227;-66
2022/12/09 03:11:05;;;;;;;54.20;24.03;;;;;;;-0.98;100.00;99166.75;4202927;28;24140;-68
2022/12/09 03:13:39;;;;;;;55.40;22.80;;;;;;;-1.04;100.00;99162.75;4214047;28;20318;-68
2022/12/09 03:16:18;;;;;;;54.40;24.20;;;;;;;-0.96;100.00;99157.88;4209449;28;20239;-66
2022/12/09 03:18:48;;;;;;;52.90;22.77;;;;;;;-0.88;100.00;99152.97;4208597;28;20234;-65
2022/12/09 03:21:18;;;;;;;54.13;24.50;;;;;;;-0.83;100.00;99157.03;4185504;28;20232;-67
2022/12/09 03:23:45;;;;;;;55.43;24.67;;;;;;;-0.83;100.00;99152.66;4208020;28;20235;-66
2022/12/09 03:26:13;;;;;;;57.80;23.93;;;;;;;-0.82;100.00;99151.72;4205224;28;23024;-68
2022/12/09 03:28:46;;;;;;;55.67;24.47;;;;;;;-0.79;100.00;99145.44;4200620;28;20358;-66
2022/12/09 03:31:17;;;;;;;56.20;23.67;;;;;;;-0.82;100.00;99145.63;4208617;28;21944;-67
2022/12/09 03:33:47;;;;;;;55.80;24.50;;;;;;;-0.81;100.00;99147.31;4212529;28;21660;-63
2022/12/09 03:36:16;;;;;;;51.13;23.33;;;;;;;-0.87;100.00;99143.34;4201650;28;20514;-67
2022/12/09 03:38:44;;;;;;;56.63;23.43;;;;;;;-1.01;100.00;99144.28;4195211;28;20316;-67
2022/12/09 03:41:23;;;;;;;54.83;24.47;;;;;;;-0.98;100.00;99148.47;4208331;28;21256;-66
2022/12/09 03:43:52;;;;;;;52.97;23.83;;;;;;;-1.07;100.00;99155.97;4218269;28;20240;-67
2022/12/09 03:46:20;;;;;;;56.23;24.30;;;;;;;-1.12;100.00;99141.56;4202990;28;20245;-66
2022/12/09 03:48:47;;;;;;;57.50;23.00;;;;;;;-1.08;100.00;99151.72;4206778;28;20365;-66
2022/12/09 03:51:41;;;;;;;56.43;23.67;;;;;;;-1.15;100.00;99150.44;4212133;28;20343;-67
2022/12/09 03:54:28;;;;;;;55.30;23.30;;;;;;;-1.09;100.00;99150.03;4211521;28;20274;-63
2022/12/09 03:56:56;;;;;;;59.63;25.07;;;;;;;-1.05;100.00;99140.22;4214731;28;22049;-64
2022/12/09 03:59:25;;;;;;;58.27;24.93;;;;;;;-1.16;100.00;99132.28;4205944;28;20779;-65
2022/12/09 04:01:53;;;;;;;57.00;24.30;;;;;;;-1.21;100.00;99144.78;4199223;28;20238;-66
2022/12/09 04:04:20;;;;;;;62.57;25.57;;;;;;;-1.13;100.00;99145.94;4215579;28;20240;-66
2022/12/09 04:06:50;;;;;;;50.67;23.10;;;;;;;-1.16;100.00;99147.94;4191178;28;20527;-69
2022/12/09 04:09:17;;;;;;;55.07;23.37;;;;;;;-1.15;100.00;99150.44;4200986;28;20306;-66
2022/12/09 04:11:44;;;;;;;55.17;24.93;;;;;;;-1.13;100.00;99143.31;4220862;28;20237;-68
2022/12/09 04:14:11;;;;;;;55.20;24.67;;;;;;;-1.12;100.00;99139.78;4213668;28;20311;-64
2022/12/09 04:16:41;;;;;;;56.77;24.47;;;;;;;-1.18;100.00;99139.38;4213996;28;21256;-67
2022/12/09 04:19:08;;;;;;;62.23;25.00;;;;;;;-1.21;100.00;99134.34;4220775;28;20391;-68
2022/12/09 04:21:35;;;;;;;55.80;24.37;;;;;;;-1.09;100.00;99138.75;4212339;28;20621;-65
2022/12/09 04:24:02;;;;;;;58.93;26.17;;;;;;;-1.12;100.00;99145.00;4211331;28;20336;-67
2022/12/09 04:26:29;;;;;;;60.80;24.67;;;;;;;-1.09;100.00;99143.97;4204231;28;20295;-71
2022/12/09 04:28:55;;;;;;;58.10;23.93;;;;;;;-1.11;100.00;99151.06;4228190;28;25376;-65
2022/12/09 04:31:22;;;;;;;55.77;23.80;;;;;;;-1.20;100.00;99144.69;4207508;28;20371;-65
2022/12/09 04:33:49;;;;;;;49.73;23.13;;;;;;;-1.07;100.00;99142.09;4226487;28;20239;-65
2022/12/09 04:36:18;;;;;;;54.63;23.00;;;;;;;-1.14;100.00;99146.88;4211255;28;20333;-65
2022/12/09 04:38:45;;;;;;;53.17;24.77;;;;;;;-1.08;100.00;99143.00;4219526;28;20229;-67
2022/12/09 04:41:13;;;;;;;58.40;24.57;;;;;;;-1.10;100.00;99142.28;4212053;28;20232;-64
2022/12/09 04:43:40;;;;;;;57.03;23.97;;;;;;;-1.11;100.00;99144.06;4229156;28;20651;-64
2022/12/09 04:46:10;;;;;;;58.57;24.93;;;;;;;-1.09;100.00;99143.97;4211354;28;21561;-67
2022/12/09 04:48:36;;;;;;;58.40;24.67;;;;;;;-1.18;100.00;99141.97;4204787;28;20237;-64
2022/12/09 04:51:03;;;;;;;53.13;23.80;;;;;;;-1.19;100.00;99142.94;4201063;28;20408;-65
2022/12/09 04:53:30;;;;;;;54.37;24.63;;;;;;;-1.21;100.00;99136.97;4215605;28;25673;-65
2022/12/09 04:56:04;;;;;;;60.60;24.57;;;;;;;-1.16;100.00;99140.94;4215577;28;20270;-65
2022/12/09 04:58:31;;;;;;;63.20;24.53;;;;;;;-1.24;100.00;99135.41;4203983;28;20235;-64
2022/12/09 05:01:05;;;;;;;54.60;24.17;;;;;;;-1.21;100.00;99139.56;4211855;28;20422;-66
2022/12/09 05:03:31;;;;;;;58.23;24.37;;;;;;;-1.19;100.00;99142.94;4204710;28;23894;-65
2022/12/09 05:05:58;;;;;;;59.40;24.83;;;;;;;-1.22;100.00;99145.72;4212735;28;20303;-65
2022/12/09 05:08:25;;;;;;;58.43;25.67;;;;;;;-1.27;100.00;99143.41;4218282;28;20246;-65
2022/12/09 05:10:57;;;;;;;53.77;24.77;;;;;;;-1.25;100.00;99144.16;4214342;28;20410;-68
2022/12/09 05:13:26;;;;;;;56.87;25.10;;;;;;;-1.38;100.00;99133.69;4219682;28;20481;-68
2022/12/09 05:15:59;;;;;;;54.47;24.17;;;;;;;-1.40;100.00;99151.22;4210422;28;20240;-64
2022/12/09 05:18:26;;;;;;;61.27;26.40;;;;;;;-1.38;100.00;99151.97;4220236;28;21363;-68
2022/12/09 05:20:54;;;;;;;56.33;24.67;;;;;;;-1.40;100.00;99148.63;4194653;28;20240;-65
2022/12/09 05:23:21;;;;;;;61.37;26.97;;;;;;;-1.45;100.00;99144.63;4209655;28;20240;-67
2022/12/09 05:25:48;;;;;;;58.83;26.13;;;;;;;-1.49;100.00;99146.63;4213891;28;20236;-67
2022/12/09 05:28:15;;;;;;;58.87;26.20;;;;;;;-1.51;100.00;99146.69;4221663;28;20669;-67
2022/12/09 05:30:41;;;;;;;60.03;25.43;;;;;;;-1.41;100.00;99146.94;4212542;28;20276;-68
2022/12/09 05:33:09;;;;;;;60.53;25.77;;;;;;;-1.32;100.00;99143.72;4213287;28;22147;-68
2022/12/09 05:35:36;;;;;;;58.43;26.40;;;;;;;-1.31;100.00;99148.00;4220561;28;20228;-62
2022/12/09 05:38:17;;;;;;;55.27;24.80;;;;;;;-1.36;100.00;99144.88;4226123;28;20318;-66
2022/12/09 05:40:44;;;;;;;61.90;25.80;;;;;;;-1.27;100.00;99148.63;4201979;28;23855;-64
2022/12/09 05:43:11;;;;;;;57.33;25.20;;;;;;;-1.23;100.00;99146.66;4211167;28;20241;-68
2022/12/09 05:45:38;;;;;;;56.57;25.33;;;;;;;-1.21;100.00;99147.41;4207863;28;20240;-70
2022/12/09 05:48:05;;;;;;;62.27;26.57;;;;;;;-1.20;100.00;99146.47;4216332;28;20239;-68
2022/12/09 05:50:32;;;;;;;66.23;26.67;;;;;;;-1.12;100.00;99154.63;4222911;28;20935;-72
2022/12/09 05:52:59;;;;;;;58.03;26.23;;;;;;;-1.17;100.00;99151.47;4203371;28;20270;-69
2022/12/09 05:55:27;;;;;;;61.53;26.67;;;;;;;-1.19;100.00;99155.97;4211881;28;22650;-68
2022/12/09 05:57:54;;;;;;;65.83;27.53;;;;;;;-1.17;100.00;99161.91;4217781;28;22975;-67
2022/12/09 06:00:21;;;;;;;61.30;26.60;;;;;;;-1.04;100.00;99154.94;4213659;28;20358;-67
2022/12/09 06:02:48;;;;;;;65.90;27.43;;;;;;;-1.06;100.00;99159.41;4243468;28;20240;-69
2022/12/09 06:05:15;;;;;;;63.80;26.83;;;;;;;-0.94;100.00;99161.19;4227272;28;21785;-67
2022/12/09 06:07:42;;;;;;;62.23;27.63;;;;;;;-0.91;100.00;99168.00;4248758;28;20232;-68
2022/12/09 06:10:09;;;;;;;58.50;27.50;;;;;;;-0.86;100.00;99165.91;4229622;28;20224;-69
2022/12/09 06:12:37;;;;;;;69.57;29.17;;;;;;;-0.94;100.00;99169.03;4250019;28;20294;-69
2022/12/09 06:15:04;;;;;;;67.57;29.00;;;;;;;-1.11;100.00;99166.72;4241704;28;21297;-68
2022/12/09 06:17:35;;;;;;;63.67;27.73;;;;;;;-1.00;100.00;99163.41;4250304;28;20430;-67
2022/12/09 06:20:03;;;;;;;63.20;25.83;;;;;;;-0.93;100.00;99160.28;4234967;28;20246;-70
2022/12/09 06:22:31;;;;;;;62.80;27.53;;;;;;;-0.91;100.00;99162.78;4274754;28;21310;-68
2022/12/09 06:24:58;;;;;;;67.10;26.60;;;;;;;-0.94;100.00;99168.19;4264970;28;21775;-67
2022/12/09 06:27:25;;;;;;;63.87;27.57;;;;;;;-0.92;100.00;99168.94;4231743;28;20239;-69
2022/12/09 06:29:52;;;;;;;64.83;27.67;;;;;;;-0.91;100.00;99168.84;4224807;28;23747;-65
2022/12/09 06:32:19;;;;;;;69.90;28.23;;;;;;;-0.94;100.00;99169.03;4220578;28;20236;-65
2022/12/09 06:34:45;;;;;;;70.90;28.33;;;;;;;-0.95;100.00;99167.38;4230215;28;20797;-68
2022/12/09 06:37:15;;;;;;;59.97;26.77;;;;;;;-0.92;100.00;99166.31;4223739;28;20247;-65
2022/12/09 06:39:42;;;;;;;62.00;27.37;;;;;;;-0.75;100.00;99165.19;4235849;28;20441;-66
2022/12/09 06:42:09;;;;;;;59.27;27.57;;;;;;;-0.78;100.00;99170.63;4228127;28;20301;-67
2022/12/09 06:44:38;;;;;;;62.13;26.20;;;;;;;-0.80;100.00;99164.66;4229094;28;20236;-63
2022/12/09 06:47:06;;;;;;;62.13;27.23;;;;;;;-0.76;100.00;99168.75;4217846;28;21203;-67
2022/12/09 06:49:33;;;;;;;61.93;26.70;;;;;;;-0.56;100.00;99170.84;4218401;28;20384;-67
2022/12/09 06:52:03;;;;;;;62.00;27.17;;;;;;;-0.63;100.00;99169.59;4217153;28;21001;-70
2022/12/09 06:54:30;;;;;;;58.03;25.73;;;;;;;-0.58;100.00;99164.88;4214336;28;20235;-67
2022/12/09 06:56:56;;;;;;;59.70;27.07;;;;;;;-0.57;100.00;99168.31;4218512;28;21892;-72
2022/12/09 06:59:23;;;;;;;62.33;27.47;;;;;;;-0.52;100.00;99169.66;4224321;28;20242;-72
2022/12/09 07:01:51;;;;;;;70.73;29.10;;;;;;;-0.45;100.00;99170.06;4215615;28;21796;-71
2022/12/09 07:04:18;;;;;;;64.17;27.53;;;;;;;-0.45;100.00;99170.91;4218264;28;20267;-67
2022/12/09 07:06:45;;;;;;;66.07;28.53;;;;;;;-0.45;100.00;99170.06;4215396;28;20234;-67
2022/12/09 07:09:15;;;;;;;68.40;27.83;;;;;;;-0.33;100.00;99177.09;4231251;28;21937;-71
2022/12/09 07:11:45;;;;;;;65.67;27.37;;;;;;;-0.24;100.00;99178.19;4213075;28;20244;-73
2022/12/09 07:14:14;;;;;;;62.20;28.27;;;;;;;-0.26;100.00;99175.72;4219007;28;23047;-73
2022/12/09 07:16:41;;;;;;;61.70;27.63;;;;;;;-0.27;100.00;99171.41;4216217;28;20237;-72
2022/12/09 07:19:16;;;;;;;68.50;27.90;;;;;;;-0.22;100.00;99171.91;4214716;28;20272;-72
2022/12/09 07:21:43;;;;;;;64.03;27.63;;;;;;;-0.24;100.00;99167.75;4240315;28;20259;-70
2022/12/09 07:24:11;;;;;;;68.30;27.53;;;;;;;-0.11;100.00;99154.66;4218727;28;20972;-72
2022/12/09 07:26:38;;;;;;;68.73;27.90;;;;;;;-0.09;100.00;99158.81;4226339;28;20228;-72
2022/12/09 07:29:06;;;;;;;59.83;27.20;;;;;;;-0.14;100.00;99158.31;4220703;28;20307;-75
2022/12/09 07:31:34;;;;;;;68.97;28.43;;;;;;;-0.05;100.00;99154.19;4222358;28;21261;-71
2022/12/09 07:34:02;;;;;;;72.70;29.90;;;;;;;-0.06;100.00;99166.44;4224841;28;20300;-78
2022/12/09 07:36:30;;;;;;;68.17;30.50;;;;;;;-0.02;100.00;99162.69;4214266;28;20247;-74
2022/12/09 07:39:03;;;;;;;67.70;28.47;;;;;;;0.02;100.00;99158.03;4247950;28;21810;-73
2022/12/09 07:41:30;;;;;;;70.87;29.80;;;;;;;0.10;100.00;99160.13;4244759;28;20236;-73
2022/12/09 07:43:57;;;;;;;64.33;28.23;;;;;;;0.10;100.00;99166.19;4249199;28;20239;-73
2022/12/09 07:46:26;;;;;;;75.10;30.27;;;;;;;0.18;100.00;99163.84;4241471;28;20234;-73
2022/12/09 07:48:54;;;;;;;58.97;27.73;;;;;;;0.45;100.00;99172.44;4276612;28;22139;-72
2022/12/09 07:51:23;;;;;;;64.03;26.80;;;;;;;0.58;100.00;99175.81;4251668;28;20333;-66
2022/12/09 07:53:50;;;;;;;57.97;27.80;;;;;;;0.77;100.00;99172.66;4241840;28;20388;-73
2022/12/09 07:56:18;;;;;;;70.83;28.63;;;;;;;0.77;100.00;99170.06;4255569;28;20257;-72
2022/12/09 07:58:46;;;;;;;64.70;27.10;;;;;;;0.83;100.00;99175.69;4249279;28;20228;-70
2022/12/09 08:01:16;;;;;;;60.07;25.97;;;;;;;0.88;100.00;99177.13;4224381;28;20234;-69
2022/12/09 08:03:43;;;;;;;57.40;27.10;;;;;;;0.69;100.00;99173.25;4219854;28;20272;-69
2022/12/09 08:06:12;;;;;;;77.63;28.60;;;;;;;0.65;100.00;99174.41;4215890;28;20238;-70
2022/12/09 08:08:39;;;;;;;58.43;26.90;;;;;;;0.77;100.00;99170.91;4223818;28;20247;-69
2022/12/09 08:11:15;;;;;;;62.10;26.30;;;;;;;0.70;100.00;99174.06;4227454;28;25491;-70
2022/12/09 08:13:42;;;;;;;65.83;27.63;;;;;;;0.79;100.00;99178.63;4231176;28;20240;-69
2022/12/09 08:16:12;;;;;;;63.83;28.33;;;;;;;0.75;100.00;99177.19;4206621;28;20398;-72
2022/12/09 08:18:39;;;;;;;60.43;25.73;;;;;;;0.67;100.00;99172.53;4209876;28;21368;-72
2022/12/09 08:21:11;;;;;;;65.97;27.43;;;;;;;0.48;100.00;99180.91;4202338;28;20324;-70
2022/12/09 08:23:38;;;;;;;67.07;26.57;;;;;;;0.67;100.00;99179.56;4210003;28;20224;-69
2022/12/09 08:26:06;;;;;;;65.03;28.23;;;;;;;0.75;100.00;99187.66;4219082;28;20321;-69
2022/12/09 08:28:33;;;;;;;60.90;26.67;;;;;;;0.69;100.00;99181.09;4206756;28;20310;-71
2022/12/09 08:31:15;;;;;;;66.60;27.47;;;;;;;0.79;100.00;99186.50;4201368;28;20232;-71
2022/12/09 08:33:42;;;;;;;61.07;26.40;;;;;;;0.80;100.00;99190.78;4210420;28;20501;-69
2022/12/09 08:36:12;;;;;;;67.37;28.77;;;;;;;0.70;100.00;99189.78;4232320;28;20279;-73
2022/12/09 08:38:39;;;;;;;64.83;27.57;;;;;;;0.83;100.00;99187.94;4214009;28;21882;-74
2022/12/09 08:41:09;;;;;;;64.60;26.53;;;;;;;0.77;100.00;99194.47;4197951;28;26453;-71
2022/12/09 08:43:36;;;;;;;63.10;27.10;;;;;;;0.86;100.00;99194.72;4220991;28;22121;-74
2022/12/09 08:46:03;;;;;;;61.53;27.20;;;;;;;0.94;100.00;99187.16;4226669;28;25168;-74
2022/12/09 08:48:30;;;;;;;67.50;28.03;;;;;;;0.86;100.00;99190.31;4215674;28;20240;-74
2022/12/09 08:50:57;;;;;;;68.17;28.87;;;;;;;0.89;100.00;99195.34;4210455;28;23359;-71
2022/12/09 08:53:23;;;;;;;70.23;27.57;;;;;;;0.86;100.00;99199.97;4197173;28;20232;-70
2022/12/09 08:55:50;;;;;;;60.87;26.73;;;;;;;0.91;100.00;99190.81;4225152;28;20239;-71
2022/12/09 08:58:17;;;;;;;80.93;28.70;;;;;;;0.78;100.00;99192.69;4211419;28;20233;-72
2022/12/09 09:00:43;;;;;;;65.53;28.40;;;;;;;0.93;100.00;99181.06;4218720;28;20235;-72
2022/12/09 09:03:10;;;;;;;68.93;28.87;;;;;;;0.99;100.00;99190.25;4207692;28;21556;-70
2022/12/09 09:05:37;;;;;;;72.40;29.60;;;;;;;0.97;100.00;99177.25;4237374;28;22895;-71
2022/12/09 09:08:04;;;;;;;64.97;27.70;;;;;;;1.20;100.00;99187.81;4204059;28;21417;-71
2022/12/09 09:10:32;;;;;;;69.77;28.13;;;;;;;1.20;100.00;99183.41;4217069;28;20228;-73
2022/12/09 09:13:00;;;;;;;66.70;26.17;;;;;;;1.31;100.00;99190.47;4221328;28;20429;-70
2022/12/09 09:15:27;;;;;;;64.00;26.90;;;;;;;1.27;100.00;99184.59;4253843;28;20236;-71
2022/12/09 09:17:54;;;;;;;72.07;28.67;;;;;;;1.32;100.00;99180.81;4228826;28;20365;-70
2022/12/09 09:20:21;;;;;;;62.70;27.80;;;;;;;1.31;100.00;99179.13;4201102;28;20294;-71
2022/12/09 09:22:48;;;;;;;57.87;27.67;;;;;;;1.30;100.00;99182.69;4233202;28;20325;-70
2022/12/09 09:25:17;;;;;;;63.33;27.33;;;;;;;1.39;100.00;99185.44;4221192;28;20291;-71
2022/12/09 09:27:43;;;;;;;68.37;29.30;;;;;;;1.41;100.00;99183.53;4216194;28;21854;-71
2022/12/09 09:30:10;;;;;;;68.13;29.40;;;;;;;1.36;100.00;99182.22;4213478;28;21635;-71
2022/12/09 09:32:38;;;;;;;61.67;28.47;;;;;;;1.38;100.00;99180.31;4224391;28;20605;-70
2022/12/09 09:35:05;;;;;;;66.13;27.87;;;;;;;1.23;100.00;99185.78;4225223;28;20377;-72
2022/12/09 09:37:32;;;;;;;66.83;28.67;;;;;;;1.30;99.89;99180.06;4203815;28;20236;-70
2022/12/09 09:40:02;;;;;;;65.53;29.17;;;;;;;1.19;100.00;99184.31;4227182;28;21797;-70
2022/12/09 09:42:34;;;;;;;67.63;28.77;;;;;;;1.09;100.00;99180.75;4200826;28;21313;-70
2022/12/09 09:45:06;;;;;;;72.50;30.53;;;;;;;1.15;100.00;99185.53;4208578;28;21819;-71
2022/12/09 09:47:37;;;;;;;72.23;31.73;;;;;;;1.23;100.00;99192.81;4217635;28;20232;-71
2022/12/09 09:50:21;;;;;;;68.77;28.63;;;;;;;1.15;100.00;99185.53;4215392;28;20319;-68
2022/12/09 09:52:51;;;;;;;72.23;29.27;;;;;;;1.13;100.00;99182.19;4204150;28;20300;-71
2022/12/09 09:55:26;;;;;;;64.83;30.17;;;;;;;1.19;100.00;99181.72;4194855;28;20257;-70
2022/12/09 09:58:09;;;;;;;65.57;29.97;;;;;;;1.23;100.00;99180.53;4209478;28;20241;-67
2022/12/09 10:00:51;;;;;;;67.83;30.67;;;;;;;1.22;100.00;99176.25;4204992;28;20231;-68
2022/12/09 10:03:29;;;;;;;66.63;30.90;;;;;;;1.40;100.00;99184.47;4208436;28;21572;-70
2022/12/09 10:06:02;;;;;;;75.13;32.53;;;;;;;1.43;100.00;99178.19;4224837;28;21278;-71
2022/12/09 10:08:40;;;;;;;65.00;30.07;;;;;;;1.61;100.00;99176.75;4196336;28;20307;-69
2022/12/09 10:11:17;;;;;;;73.53;29.73;;;;;;;1.68;99.46;99177.94;4212605;28;20245;-68
2022/12/09 10:13:51;;;;;;;68.60;29.20;;;;;;;1.65;98.80;99178.19;4235643;28;20270;-72
2022/12/09 10:16:23;;;;;;;68.60;30.10;;;;;;;1.57;99.18;99185.81;4193182;28;20251;-70
2022/12/09 10:19:14;;;;;;;70.30;31.07;;;;;;;1.56;100.00;99178.91;4235882;28;20239;-71
2022/12/09 10:21:43;;;;;;;72.47;31.20;;;;;;;1.64;99.70;99179.16;4223356;28;20260;-69
2022/12/09 10:24:16;;;;;;;68.27;29.60;;;;;;;1.59;98.38;99178.69;4231965;28;20403;-72
2022/12/09 10:26:46;;;;;;;75.97;30.23;;;;;;;1.68;98.57;99182.34;4217718;28;20254;-72
2022/12/09 10:29:25;;;;;;;74.23;29.23;;;;;;;1.76;98.30;99181.78;4251807;28;20243;-71
2022/12/09 10:31:52;;;;;;;80.47;30.23;;;;;;;1.46;99.19;99181.41;4235730;28;20314;-71
2022/12/09 10:34:19;;;;;;;72.60;30.90;;;;;;;1.28;100.00;99185.44;4263427;28;20412;-70
2022/12/09 10:36:46;;;;;;;66.10;31.93;;;;;;;1.47;100.00;99196.19;4233589;28;20230;-75
2022/12/09 10:39:17;;;;;;;71.83;30.50;;;;;;;1.56;100.00;99183.31;4216678;28;21821;-73
2022/12/09 10:44:36;;;;;;;68.47;29.73;;;;;;;2.00;97.84;99185.09;4260972;28;20372;-71
2022/12/09 10:47:05;;;;;;;70.43;30.90;;;;;;;1.99;97.98;99188.69;4218213;28;21338;-72
2022/12/09 10:49:35;;;;;;;66.50;30.00;;;;;;;2.19;97.91;99187.06;4251788;28;20236;-72
2022/12/09 10:52:04;;;;;;;63.10;29.17;;;;;;;2.51;96.44;99189.75;4255193;28;20227;-75
2022/12/09 10:54:37;;;;;;;62.80;29.83;;;;;;;2.37;95.64;99184.78;4250519;28;20243;-71
2022/12/09 10:57:23;;;;;;;66.80;30.17;;;;;;;2.02;95.77;99185.81;4234711;28;22104;-72
2022/12/09 11:00:05;;;;;;;58.73;28.33;;;;;;;2.07;96.39;99178.41;4271630;28;20313;-70
2022/12/09 11:02:48;;;;;;;63.43;28.60;;;;;;;2.11;95.85;99179.81;4267174;28;20282;-69
2022/12/09 11:05:23;;;;;;;67.70;29.97;;;;;;;1.93;95.99;99173.41;4223934;28;20234;-71
2022/12/09 11:07:51;;;;;;;68.47;30.07;;;;;;;1.94;97.57;99175.06;4264504;28;20227;-73
2022/12/09 11:10:23;;;;;;;67.03;29.40;;;;;;;2.04;96.81;99177.81;4226087;28;20481;-74
2022/12/09 11:13:03;;;;;;;72.20;31.97;;;;;;;2.08;97.42;99173.97;4240015;28;20354;-73
2022/12/09 11:15:39;;;;;;;79.33;32.20;;;;;;;2.26;97.27;99169.06;4274150;28;20426;-69
2022/12/09 11:18:18;;;;;;;73.27;31.27;;;;;;;2.27;96.85;99173.34;4258705;28;20242;-71
2022/12/09 11:21:03;;;;;;;72.63;32.73;;;;;;;2.34;96.55;99174.50;4228085;28;20296;-71
2022/12/09 11:23:30;;;;;;;68.50;31.23;;;;;;;2.66;95.79;99171.91;4227614;28;21639;-71
2022/12/09 11:26:04;;;;;;;67.43;28.77;;;;;;;2.65;94.73;99169.41;4252589;28;20290;-73